createdAt,value
2022-09-11T00:01:40.481Z,99.90
2022-09-11T00:04:09.344Z,99.90
2022-09-11T00:06:36.419Z,99.90
2022-09-11T00:09:07.638Z,99.90
2022-09-11T00:11:43.011Z,99.90
2022-09-11T00:14:13.920Z,99.90
2022-09-11T00:16:45.089Z,99.90
2022-09-11T00:19:19.535Z,99.90
2022-09-11T00:21:47.282Z,99.90
2022-09-11T00:24:14.282Z,99.90
2022-09-11T00:26:42.588Z,99.90
2022-09-11T00:29:10.824Z,99.90
2022-09-11T00:31:38.673Z,99.90
2022-09-11T00:34:07.094Z,99.90
2022-09-11T00:36:36.426Z,99.90
2022-09-11T00:39:04.036Z,99.90
2022-09-11T00:41:42.952Z,99.90
2022-09-11T00:44:16.859Z,99.90
2022-09-11T00:47:05.438Z,99.90
2022-09-11T00:50:19.310Z,99.90
2022-09-11T00:52:58.152Z,99.90
2022-09-11T00:55:35.499Z,99.90
2022-09-11T00:58:15.575Z,99.90
2022-09-11T01:00:45.217Z,99.90
2022-09-11T01:03:12.989Z,99.90
2022-09-11T01:05:43.494Z,99.90
2022-09-11T01:08:10.635Z,99.90
2022-09-11T01:11:28.767Z,99.90
2022-09-11T01:14:21.977Z,99.90
2022-09-11T01:17:05.292Z,99.90
2022-09-11T01:20:25.423Z,99.90
2022-09-11T01:23:13.643Z,99.90
2022-09-11T01:26:15.008Z,99.90
2022-09-11T01:29:02.916Z,99.90
2022-09-11T01:31:41.930Z,99.90
2022-09-11T01:34:27.417Z,99.90
2022-09-11T01:37:06.855Z,99.90
2022-09-11T01:39:50.085Z,99.90
2022-09-11T01:42:20.989Z,99.90
2022-09-11T01:44:54.789Z,99.90
2022-09-11T01:47:22.406Z,99.90
2022-09-11T01:50:03.515Z,99.90
2022-09-11T01:53:02.086Z,99.90
2022-09-11T01:55:42.843Z,99.90
2022-09-11T01:58:21.172Z,99.90
2022-09-11T02:00:53.912Z,99.90
2022-09-11T02:03:27.263Z,99.90
2022-09-11T02:06:03.028Z,99.90
2022-09-11T02:08:54.563Z,99.90
2022-09-11T02:11:22.229Z,99.90
2022-09-11T02:13:49.142Z,99.90
2022-09-11T02:16:26.485Z,99.90
2022-09-11T02:19:02.884Z,99.90
2022-09-11T02:21:34.474Z,99.90
2022-09-11T02:24:02.440Z,99.90
2022-09-11T02:26:33.753Z,99.90
2022-09-11T02:29:03.815Z,99.90
2022-09-11T02:31:31.350Z,99.90
2022-09-11T02:33:58.878Z,99.90
2022-09-11T02:36:32.330Z,99.90
2022-09-11T02:39:05.666Z,99.90
2022-09-11T02:42:31.203Z,99.90
2022-09-11T02:45:39.194Z,99.90
2022-09-11T02:48:30.832Z,99.90
2022-09-11T02:51:17.356Z,99.90
2022-09-11T02:54:36.299Z,99.90
2022-09-11T02:57:13.855Z,99.90
2022-09-11T03:00:01.124Z,99.90
2022-09-11T03:02:34.965Z,99.90
2022-09-11T03:05:02.121Z,99.90
2022-09-11T03:07:29.881Z,99.90
2022-09-11T03:10:00.380Z,99.90
2022-09-11T03:12:27.504Z,99.90
2022-09-11T03:14:54.838Z,99.90
2022-09-11T03:17:22.502Z,99.90
2022-09-11T03:19:49.905Z,99.90
2022-09-11T03:22:17.449Z,99.90
2022-09-11T03:24:45.120Z,99.90
2022-09-11T03:27:12.384Z,99.90
2022-09-11T03:29:42.750Z,99.90
2022-09-11T03:32:10.157Z,99.90
2022-09-11T03:34:37.298Z,99.90
2022-09-11T03:37:04.953Z,99.90
2022-09-11T03:39:35.150Z,99.90
2022-09-11T03:42:02.277Z,99.90
2022-09-11T03:44:29.524Z,99.90
2022-09-11T03:46:57.293Z,99.90
2022-09-11T03:49:24.381Z,99.90
2022-09-11T03:51:51.905Z,99.90
2022-09-11T03:54:20.971Z,99.90
2022-09-11T03:56:48.491Z,99.90
2022-09-11T03:59:15.725Z,99.90
2022-09-11T04:01:43.044Z,99.90
2022-09-11T04:04:10.152Z,99.90
2022-09-11T04:06:37.398Z,99.90
2022-09-11T04:09:08.956Z,99.90
2022-09-11T04:11:39.005Z,99.90
2022-09-11T04:14:07.789Z,99.90
2022-09-11T04:16:35.810Z,99.90
2022-09-11T04:19:03.668Z,99.90
2022-09-11T04:21:34.858Z,99.90
2022-09-11T04:24:05.375Z,99.90
2022-09-11T04:26:33.638Z,99.90
2022-09-11T04:29:01.460Z,99.90
2022-09-11T04:31:29.064Z,99.90
2022-09-11T04:33:57.977Z,99.90
2022-09-11T04:36:27.048Z,99.90
2022-09-11T04:39:00.149Z,99.90
2022-09-11T04:41:28.834Z,99.90
2022-09-11T04:44:03.789Z,99.90
2022-09-11T04:46:32.113Z,99.90
2022-09-11T04:48:59.490Z,99.90
2022-09-11T04:51:36.581Z,99.90
2022-09-11T04:54:05.236Z,99.90
2022-09-11T04:56:37.885Z,99.90
2022-09-11T04:59:26.838Z,99.90
2022-09-11T05:01:54.699Z,99.90
2022-09-11T05:04:26.524Z,99.90
2022-09-11T05:06:53.987Z,99.90
2022-09-11T05:09:27.671Z,99.90
2022-09-11T05:11:54.871Z,99.90
2022-09-11T05:14:22.510Z,99.90
2022-09-11T05:16:49.691Z,99.90
2022-09-11T05:19:16.775Z,99.90
2022-09-11T05:21:44.089Z,99.90
2022-09-11T05:24:11.593Z,99.90
2022-09-11T05:26:38.780Z,99.90
2022-09-11T05:29:11.631Z,99.90
2022-09-11T05:31:39.482Z,99.90
2022-09-11T05:34:07.424Z,99.90
2022-09-11T05:36:38.070Z,99.90
2022-09-11T05:39:05.278Z,99.90
2022-09-11T05:41:32.534Z,99.90
2022-09-11T05:43:59.702Z,99.90
2022-09-11T05:46:26.914Z,99.90
2022-09-11T05:48:53.993Z,99.90
2022-09-11T05:51:22.804Z,99.90
2022-09-11T05:53:56.784Z,99.90
2022-09-11T05:56:26.034Z,99.90
2022-09-11T05:58:53.314Z,99.90
2022-09-11T06:01:23.694Z,99.90
2022-09-11T06:03:51.206Z,99.90
2022-09-11T06:06:21.991Z,99.90
2022-09-11T06:08:53.041Z,99.90
2022-09-11T06:11:22.096Z,99.90
2022-09-11T06:13:50.060Z,99.90
2022-09-11T06:16:24.209Z,99.90
2022-09-11T06:18:53.376Z,99.90
2022-09-11T06:21:27.228Z,99.90
2022-09-11T06:23:54.543Z,99.90
2022-09-11T06:26:25.531Z,99.90
2022-09-11T06:28:56.294Z,99.90
2022-09-11T06:31:26.139Z,99.90
2022-09-11T06:33:54.603Z,99.90
2022-09-11T06:36:27.094Z,99.90
2022-09-11T06:38:56.465Z,99.90
2022-09-11T06:41:25.326Z,99.90
2022-09-11T06:43:53.615Z,99.90
2022-09-11T06:46:25.934Z,99.90
2022-09-11T06:48:55.051Z,99.90
2022-09-11T06:51:23.999Z,99.90
2022-09-11T06:53:58.659Z,99.90
2022-09-11T06:56:26.343Z,99.90
2022-09-11T06:58:53.654Z,99.90
2022-09-11T07:01:22.561Z,99.90
2022-09-11T07:03:53.162Z,99.90
2022-09-11T07:06:26.782Z,99.90
2022-09-11T07:09:01.582Z,99.90
2022-09-11T07:11:34.501Z,99.90
2022-09-11T07:14:05.846Z,99.90
2022-09-11T07:16:36.686Z,99.90
2022-09-11T07:19:04.795Z,99.90
2022-09-11T07:21:35.580Z,99.90
2022-09-11T07:24:04.225Z,99.90
2022-09-11T07:26:31.613Z,99.90
2022-09-11T07:28:59.740Z,99.90
2022-09-11T07:31:32.842Z,99.90
2022-09-11T07:34:00.739Z,99.90
2022-09-11T07:36:33.305Z,99.90
2022-09-11T07:39:00.939Z,99.90
2022-09-11T07:41:29.025Z,99.90
2022-09-11T07:43:59.847Z,99.90
2022-09-11T07:46:27.374Z,99.90
2022-09-11T07:48:57.726Z,99.90
2022-09-11T07:51:26.927Z,99.90
2022-09-11T07:53:57.927Z,99.90
2022-09-11T07:56:27.690Z,99.90
2022-09-11T07:58:56.092Z,99.90
2022-09-11T08:01:26.974Z,99.90
2022-09-11T08:04:00.465Z,99.90
2022-09-11T08:06:31.510Z,99.90
2022-09-11T08:09:05.175Z,99.90
2022-09-11T08:11:36.484Z,99.90
2022-09-11T08:14:04.190Z,99.90
2022-09-11T08:16:31.594Z,99.90
2022-09-11T08:19:02.271Z,99.90
2022-09-11T08:21:32.798Z,99.90
2022-09-11T08:24:00.423Z,99.90
2022-09-11T08:26:30.990Z,99.90
2022-09-11T08:29:00.022Z,99.90
2022-09-11T08:31:28.314Z,99.90
2022-09-11T08:33:57.132Z,99.90
2022-09-11T08:36:27.928Z,99.90
2022-09-11T08:38:55.995Z,99.90
2022-09-11T08:42:04.175Z,99.90
2022-09-11T08:44:56.744Z,99.90
2022-09-11T08:47:32.675Z,99.90
2022-09-11T08:50:22.084Z,99.90
2022-09-11T08:52:50.123Z,99.90
2022-09-11T08:55:35.524Z,99.90
2022-09-11T08:58:52.514Z,99.90
2022-09-11T09:01:30.569Z,99.90
2022-09-11T09:04:07.784Z,99.90
2022-09-11T09:06:34.698Z,99.90
2022-09-11T09:09:01.894Z,99.90
2022-09-11T09:11:46.853Z,99.90
2022-09-11T09:14:42.647Z,99.90
2022-09-11T09:17:22.029Z,99.90
2022-09-11T09:20:13.373Z,99.90
2022-09-11T09:22:51.365Z,99.90
2022-09-11T09:25:22.893Z,99.90
2022-09-11T09:28:41.592Z,99.90
2022-09-11T09:31:15.002Z,99.90
2022-09-11T09:34:31.200Z,99.90
2022-09-11T09:37:20.152Z,99.90
2022-09-11T09:39:48.082Z,99.90
2022-09-11T09:42:44.085Z,99.90
2022-09-11T09:45:20.305Z,99.90
2022-09-11T09:47:49.077Z,99.90
2022-09-11T09:50:34.335Z,99.90
2022-09-11T09:53:36.079Z,99.90
2022-09-11T09:56:06.095Z,99.90
2022-09-11T09:58:40.861Z,99.90
2022-09-11T10:01:46.402Z,99.90
2022-09-11T10:04:17.144Z,99.90
2022-09-11T10:06:47.775Z,99.90
2022-09-11T10:09:29.654Z,99.90
2022-09-11T10:12:06.351Z,99.90
2022-09-11T10:15:01.415Z,99.90
2022-09-11T10:17:29.571Z,99.90
2022-09-11T10:20:23.657Z,99.90
2022-09-11T10:22:52.191Z,99.90
2022-09-11T10:25:29.891Z,99.90
2022-09-11T10:28:15.180Z,99.90
2022-09-11T10:31:03.200Z,99.90
2022-09-11T10:33:33.929Z,99.90
2022-09-11T10:36:05.879Z,99.90
2022-09-11T10:38:45.221Z,99.90
2022-09-11T10:41:12.985Z,99.90
2022-09-11T10:44:01.572Z,99.90
2022-09-11T10:46:40.819Z,99.90
2022-09-11T10:49:23.346Z,99.90
2022-09-11T10:52:03.075Z,99.90
2022-09-11T10:54:52.245Z,99.90
2022-09-11T10:57:34.544Z,99.90
2022-09-11T11:00:30.368Z,99.90
2022-09-11T11:03:12.916Z,99.90
2022-09-11T11:06:13.431Z,99.90
2022-09-11T11:09:16.976Z,99.90
2022-09-11T11:12:19.826Z,99.90
2022-09-11T11:15:19.767Z,99.90
2022-09-11T11:18:11.899Z,99.90
2022-09-11T11:21:08.570Z,99.90
2022-09-11T11:24:32.501Z,99.90
2022-09-11T11:27:19.771Z,99.90
2022-09-11T11:30:11.323Z,99.90
2022-09-11T11:33:10.583Z,99.90
2022-09-11T11:36:02.301Z,99.90
2022-09-11T11:38:37.221Z,99.90
2022-09-11T11:41:23.987Z,99.90
2022-09-11T11:43:53.294Z,99.90
2022-09-11T11:46:38.764Z,99.90
2022-09-11T11:49:15.247Z,99.90
2022-09-11T11:52:26.684Z,99.90
2022-09-11T11:55:02.908Z,99.90
2022-09-11T11:57:41.602Z,99.90
2022-09-11T12:00:17.035Z,99.90
2022-09-11T12:02:49.513Z,99.90
2022-09-11T12:05:32.547Z,99.90
2022-09-11T12:08:03.316Z,99.90
2022-09-11T12:10:40.953Z,99.90
2022-09-11T12:13:16.704Z,99.90
2022-09-11T12:16:24.657Z,99.90
2022-09-11T12:19:13.349Z,99.90
2022-09-11T12:22:06.631Z,99.90
2022-09-11T12:24:52.470Z,99.90
2022-09-11T12:27:37.363Z,99.90
2022-09-11T12:30:16.571Z,99.90
2022-09-11T12:32:53.446Z,99.90
2022-09-11T12:35:50.444Z,99.90
2022-09-11T12:38:39.700Z,99.90
2022-09-11T12:41:25.875Z,99.90
2022-09-11T12:43:55.065Z,99.90
2022-09-11T12:46:22.012Z,99.90
2022-09-11T12:49:20.456Z,99.90
2022-09-11T12:51:59.568Z,99.90
2022-09-11T12:54:39.097Z,99.90
2022-09-11T12:57:15.964Z,99.90
2022-09-11T12:59:55.820Z,99.90
2022-09-11T13:02:30.648Z,99.90
2022-09-11T13:04:58.227Z,99.90
2022-09-11T13:08:00.773Z,99.90
2022-09-11T13:10:37.975Z,99.90
2022-09-11T13:13:29.883Z,99.90
2022-09-11T13:15:58.677Z,99.90
2022-09-11T13:18:35.179Z,99.90
2022-09-11T13:21:11.442Z,99.90
2022-09-11T13:23:48.119Z,99.90
2022-09-11T13:26:31.349Z,99.90
2022-09-11T13:29:01.356Z,98.90
2022-09-11T13:31:35.557Z,99.00
2022-09-11T13:34:12.046Z,98.40
2022-09-11T13:36:40.776Z,99.00
2022-09-11T13:39:09.573Z,97.70
2022-09-11T13:41:40.875Z,97.60
2022-09-11T13:44:30.426Z,97.50
2022-09-11T13:46:58.318Z,96.70
2022-09-11T13:49:39.072Z,95.60
2022-09-11T13:52:12.727Z,96.70
2022-09-11T13:54:57.349Z,96.30
2022-09-11T13:57:31.976Z,95.70
2022-09-11T14:00:00.435Z,96.50
2022-09-11T14:02:50.025Z,95.90
2022-09-11T14:05:20.834Z,95.10
2022-09-11T14:08:04.794Z,95.10
2022-09-11T14:10:47.429Z,95.50
2022-09-11T14:13:33.873Z,94.60
2022-09-11T14:16:16.303Z,94.70
2022-09-11T14:19:08.261Z,94.40
2022-09-11T14:21:43.817Z,94.40
2022-09-11T14:24:33.705Z,94.40
2022-09-11T14:27:04.521Z,94.20
2022-09-11T14:29:36.307Z,94.50
2022-09-11T14:32:31.348Z,94.90
2022-09-11T14:35:00.522Z,94.70
2022-09-11T14:37:32.174Z,93.90
2022-09-11T14:40:15.534Z,92.60
2022-09-11T14:42:47.103Z,92.60
2022-09-11T14:45:24.552Z,91.60
2022-09-11T14:47:54.703Z,91.40
2022-09-11T14:50:22.683Z,91.60
2022-09-11T14:52:49.749Z,91.90
2022-09-11T14:55:20.201Z,91.70
2022-09-11T14:57:47.950Z,92.10
2022-09-11T15:00:19.569Z,93.80
2022-09-11T15:02:47.776Z,93.60
2022-09-11T15:05:21.857Z,94.80
2022-09-11T15:07:49.153Z,95.10
2022-09-11T15:10:16.447Z,95.90
2022-09-11T15:12:44.660Z,96.30
2022-09-11T15:15:11.709Z,97.60
2022-09-11T15:17:39.260Z,98.00
2022-09-11T15:20:09.251Z,98.90
2022-09-11T15:22:39.927Z,98.60
2022-09-11T15:25:08.165Z,98.90
2022-09-11T15:27:35.459Z,97.90
2022-09-11T15:30:03.722Z,98.70
2022-09-11T15:32:31.489Z,99.90
2022-09-11T15:34:58.640Z,99.90
2022-09-11T15:37:26.335Z,99.90
2022-09-11T15:39:53.582Z,99.90
2022-09-11T15:42:20.739Z,99.90
2022-09-11T15:44:47.989Z,99.90
2022-09-11T15:47:15.129Z,99.90
2022-09-11T15:49:44.561Z,99.90
2022-09-11T15:52:11.885Z,99.90
2022-09-11T15:54:39.115Z,99.90
2022-09-11T15:57:07.510Z,99.90
2022-09-11T15:59:34.613Z,99.90
2022-09-11T16:02:01.941Z,99.90
2022-09-11T16:04:32.234Z,99.90
2022-09-11T16:07:02.724Z,99.90
2022-09-11T16:09:32.335Z,99.90
2022-09-11T16:12:01.689Z,99.90
2022-09-11T16:14:32.874Z,99.90
2022-09-11T16:17:02.399Z,99.90
2022-09-11T16:19:30.700Z,99.90
2022-09-11T16:22:03.691Z,99.90
2022-09-11T16:24:35.558Z,99.90
2022-09-11T16:27:05.496Z,99.90
2022-09-11T16:30:09.031Z,99.90
2022-09-11T16:32:28.489Z,99.90
2022-09-11T16:34:57.691Z,99.90
2022-09-11T16:37:26.110Z,99.90
2022-09-11T16:39:53.475Z,99.90
2022-09-11T16:42:23.796Z,99.90
2022-09-11T16:44:51.121Z,99.90
2022-09-11T16:47:18.263Z,99.90
2022-09-11T16:50:06.319Z,99.90
2022-09-11T16:52:34.841Z,99.90
2022-09-11T16:55:07.633Z,99.90
2022-09-11T16:57:35.008Z,99.90
2022-09-11T17:00:07.835Z,99.90
2022-09-11T17:02:35.009Z,99.90
2022-09-11T17:05:07.758Z,99.90
2022-09-11T17:07:36.077Z,99.90
2022-09-11T17:10:04.390Z,99.90
2022-09-11T17:12:32.454Z,99.90
2022-09-11T17:14:59.719Z,99.90
2022-09-11T17:17:26.760Z,99.90
2022-09-11T17:19:54.625Z,99.90
2022-09-11T17:22:21.727Z,99.90
2022-09-11T17:24:48.876Z,99.90
2022-09-11T17:27:16.074Z,99.90
2022-09-11T17:29:44.932Z,99.90
2022-09-11T17:32:31.132Z,99.90
2022-09-11T17:34:58.913Z,99.90
2022-09-11T17:37:27.047Z,99.90
2022-09-11T17:39:54.576Z,99.90
2022-09-11T17:42:22.907Z,99.90
2022-09-11T17:44:50.415Z,99.90
2022-09-11T17:47:17.662Z,99.90
2022-09-11T17:49:45.442Z,99.90
2022-09-11T17:52:13.943Z,99.90
2022-09-11T17:54:41.016Z,99.90
2022-09-11T17:57:12.190Z,99.90
2022-09-11T17:59:40.117Z,99.90
2022-09-11T18:02:07.472Z,99.90
2022-09-11T18:04:34.612Z,99.90
2022-09-11T18:07:02.229Z,99.90
2022-09-11T18:09:29.684Z,99.90
2022-09-11T18:11:57.189Z,99.90
2022-09-11T18:14:27.613Z,99.90
2022-09-11T18:16:55.429Z,99.90
2022-09-11T18:19:23.577Z,99.90
2022-09-11T18:21:51.811Z,99.90
2022-09-11T18:24:20.964Z,99.90
2022-09-11T18:26:58.615Z,99.90
2022-09-11T18:29:30.264Z,99.90
2022-09-11T18:31:59.887Z,99.90
2022-09-11T18:34:28.974Z,99.90
2022-09-11T18:36:56.338Z,99.90
2022-09-11T18:39:24.285Z,99.90
2022-09-11T18:41:55.319Z,99.90
2022-09-11T18:44:24.973Z,99.90
2022-09-11T18:46:56.269Z,99.90
2022-09-11T18:49:24.014Z,99.90
2022-09-11T18:51:52.048Z,99.90
2022-09-11T18:54:21.344Z,99.90
2022-09-11T18:56:50.566Z,99.90
2022-09-11T18:59:20.414Z,99.90
2022-09-11T19:01:48.071Z,99.90
2022-09-11T19:04:17.254Z,99.90
2022-09-11T19:06:48.376Z,99.90
2022-09-11T19:09:16.026Z,99.90
2022-09-11T19:11:43.481Z,99.90
2022-09-11T19:14:12.329Z,99.90
2022-09-11T19:16:40.358Z,99.90
2022-09-11T19:19:09.135Z,99.90
2022-09-11T19:21:40.198Z,99.90
2022-09-11T19:24:08.067Z,99.90
2022-09-11T19:26:39.200Z,99.90
2022-09-11T19:29:12.712Z,99.90
2022-09-11T19:31:43.564Z,99.90
2022-09-11T19:34:14.098Z,99.90
2022-09-11T19:36:42.049Z,99.90
2022-09-11T19:39:11.658Z,99.90
2022-09-11T19:41:40.005Z,99.90
2022-09-11T19:44:12.599Z,99.90
2022-09-11T19:46:41.813Z,99.90
2022-09-11T19:49:10.657Z,99.90
2022-09-11T19:51:42.196Z,99.90
2022-09-11T19:54:11.920Z,99.90
2022-09-11T19:56:44.480Z,99.90
2022-09-11T19:59:15.163Z,99.90
2022-09-11T20:01:43.401Z,99.90
2022-09-11T20:04:12.541Z,99.90
2022-09-11T20:11:57.308Z,99.90
2022-09-11T20:14:24.523Z,99.90
2022-09-11T20:16:51.673Z,99.90
2022-09-11T20:19:20.125Z,99.90
2022-09-11T20:21:50.753Z,99.90
2022-09-11T20:24:19.773Z,99.90
2022-09-11T20:26:53.702Z,99.90
2022-09-11T20:29:20.717Z,99.90
2022-09-11T20:31:51.147Z,99.90
2022-09-11T20:34:19.831Z,99.90
2022-09-11T20:36:47.690Z,99.90
2022-09-11T20:39:17.816Z,99.90
2022-09-11T20:41:45.010Z,99.90
2022-09-11T20:44:12.368Z,99.90
2022-09-11T20:46:40.518Z,99.90
2022-09-11T20:49:07.748Z,99.90
2022-09-11T20:51:35.374Z,99.90
2022-09-11T20:54:02.661Z,99.90
2022-09-11T20:56:30.165Z,99.90
2022-09-11T20:58:57.885Z,99.90
2022-09-11T21:01:27.275Z,99.90
2022-09-11T21:03:57.905Z,99.90
2022-09-11T21:06:31.608Z,99.90
2022-09-11T21:09:05.681Z,99.90
2022-09-11T21:11:33.189Z,99.90
2022-09-11T21:14:05.015Z,99.90
2022-09-11T21:16:32.718Z,99.90
2022-09-11T21:19:04.751Z,99.90
2022-09-11T21:21:33.605Z,99.90
2022-09-11T21:24:04.706Z,99.90
2022-09-11T21:26:33.407Z,99.90
2022-09-11T21:29:04.753Z,99.90
2022-09-11T21:31:32.007Z,99.90
2022-09-11T21:34:00.624Z,99.90
2022-09-11T21:36:28.314Z,99.90
2022-09-11T21:38:55.713Z,99.90
2022-09-11T21:41:23.078Z,99.90
2022-09-11T21:43:50.433Z,99.90
2022-09-11T21:46:17.711Z,99.90
2022-09-11T21:48:44.776Z,99.90
2022-09-11T21:51:17.658Z,99.90
2022-09-11T21:53:47.233Z,99.90
2022-09-11T21:56:25.033Z,99.90
2022-09-11T21:58:53.681Z,99.90
2022-09-11T22:01:22.910Z,99.90
2022-09-11T22:03:51.610Z,99.90
2022-09-11T22:06:20.499Z,99.90
2022-09-11T22:08:47.689Z,99.90
2022-09-11T22:11:18.444Z,99.90
2022-09-11T22:13:47.790Z,99.90
2022-09-11T22:16:18.348Z,99.90
2022-09-11T22:18:50.537Z,99.90
2022-09-11T22:21:18.058Z,99.90
2022-09-11T22:23:45.442Z,99.90
2022-09-11T22:26:20.726Z,99.90
2022-09-11T22:28:48.452Z,99.90
2022-09-11T22:31:24.020Z,99.90
2022-09-11T22:33:52.778Z,99.90
2022-09-11T22:36:29.524Z,99.90
2022-09-11T22:38:59.085Z,99.90
2022-09-11T22:41:27.484Z,99.90
2022-09-11T22:43:55.210Z,99.90
2022-09-11T22:46:23.762Z,99.90
2022-09-11T22:48:51.398Z,99.90
2022-09-11T22:51:22.199Z,99.90
2022-09-11T22:53:49.483Z,99.90
2022-09-11T22:56:17.098Z,99.90
2022-09-11T22:58:44.232Z,99.90
2022-09-11T23:01:16.771Z,99.90
2022-09-11T23:03:47.017Z,99.90
2022-09-11T23:06:33.170Z,99.90
2022-09-11T23:09:07.750Z,99.90
2022-09-11T23:11:38.391Z,99.90
2022-09-11T23:14:13.862Z,99.90
2022-09-11T23:16:41.395Z,99.90
2022-09-11T23:19:12.117Z,99.90
2022-09-11T23:21:39.312Z,99.90
2022-09-11T23:24:14.519Z,99.90
2022-09-11T23:26:41.840Z,99.90
2022-09-11T23:29:08.861Z,99.90
2022-09-11T23:31:36.652Z,99.90
2022-09-11T23:34:08.304Z,99.90
2022-09-11T23:36:36.402Z,99.90
2022-09-11T23:39:07.107Z,99.90
2022-09-11T23:41:34.283Z,99.90
2022-09-11T23:44:02.434Z,99.90
2022-09-11T23:46:29.738Z,99.90
2022-09-11T23:49:00.147Z,99.90
2022-09-11T23:51:27.722Z,99.90
2022-09-11T23:53:54.861Z,99.90
2022-09-11T23:56:22.564Z,99.90
2022-09-11T23:58:50.886Z,99.90
